Time;durP1;ratioP1;P1;durP2;ratioP2;P2;SDS_P1;SDS_P2;PMS_P1;PMS_P2;Temp;Humidity;BMP_temperature;BMP_pressure;BME280_temperature;BME280_humidity;BME280_pressure;Samples;Min_cycle;Max_cycle;Signal;HPM_P1;HPM_P2
2024/01/16 00:01:43;;;;;;;5.80;3.38;;;;;;;;;;5090931;28;20035;-83
2024/01/16 00:04:10;;;;;;;6.25;3.22;;;;;;;;;;5076183;28;20020;-83
2024/01/16 00:06:42;;;;;;;6.78;3.70;;;;;;;;;;5069782;28;20112;-83
2024/01/16 00:09:09;;;;;;;4.07;3.38;;;;;;;;;;5068480;28;20024;-83
2024/01/16 00:11:41;;;;;;;5.53;3.50;;;;;;;;;;5069780;28;20500;-82
2024/01/16 00:14:06;;;;;;;5.10;3.45;;;;;;;;;;5069595;28;20031;-83
2024/01/16 00:16:32;;;;;;;9.27;3.85;;;;;;;;;;5069587;28;20087;-82
2024/01/16 00:18:59;;;;;;;5.53;3.40;;;;;;;;;;5069565;28;20070;-82
2024/01/16 00:21:25;;;;;;;6.13;3.28;;;;;;;;;;5069428;28;20503;-83
2024/01/16 00:23:50;;;;;;;3.97;3.42;;;;;;;;;;5069281;28;20028;-83
2024/01/16 00:26:21;;;;;;;8.30;3.55;;;;;;;;;;5069609;28;20024;-82
2024/01/16 00:28:47;;;;;;;5.10;3.42;;;;;;;;;;5069607;28;20446;-82
2024/01/16 00:31:13;;;;;;;4.65;3.10;;;;;;;;;;5070089;28;20488;-82
2024/01/16 00:33:39;;;;;;;4.85;3.38;;;;;;;;;;5069417;28;20035;-82
2024/01/16 00:36:06;;;;;;;6.05;3.30;;;;;;;;;;5069421;28;20069;-82
2024/01/16 00:38:34;;;;;;;4.13;3.20;;;;;;;;;;5069412;28;20546;-83
2024/01/16 00:41:00;;;;;;;4.57;3.72;;;;;;;;;;5086957;28;20020;-82
2024/01/16 00:43:26;;;;;;;5.47;3.90;;;;;;;;;;5088139;28;20020;-82
2024/01/16 00:45:52;;;;;;;6.10;3.70;;;;;;;;;;5089334;28;20023;-82
2024/01/16 00:48:20;;;;;;;5.38;3.83;;;;;;;;;;5088078;28;20034;-82
2024/01/16 00:50:49;;;;;;;5.43;3.87;;;;;;;;;;5090223;28;20430;-82
2024/01/16 00:53:15;;;;;;;5.70;4.05;;;;;;;;;;5090069;28;20559;-82
2024/01/16 00:55:40;;;;;;;5.97;3.63;;;;;;;;;;5072162;28;20476;-83
2024/01/16 00:58:06;;;;;;;5.93;4.00;;;;;;;;;;5069015;28;20032;-84
2024/01/16 01:00:34;;;;;;;4.30;3.67;;;;;;;;;;5068976;28;20371;-84
2024/01/16 01:03:00;;;;;;;3.63;3.33;;;;;;;;;;5068993;28;20012;-84
2024/01/16 01:05:28;;;;;;;5.68;3.60;;;;;;;;;;5068584;28;20340;-83
2024/01/16 01:07:57;;;;;;;6.82;3.63;;;;;;;;;;5067741;28;20078;-82
2024/01/16 01:10:23;;;;;;;6.45;3.90;;;;;;;;;;5068999;28;20025;-83
2024/01/16 01:12:50;;;;;;;4.97;3.67;;;;;;;;;;5069119;28;20047;-83
2024/01/16 01:15:16;;;;;;;4.55;3.25;;;;;;;;;;5069760;28;20017;-83
2024/01/16 01:17:42;;;;;;;5.30;3.50;;;;;;;;;;5068472;28;20028;-83
2024/01/16 01:20:09;;;;;;;5.00;3.20;;;;;;;;;;5068869;28;20020;-84
2024/01/16 01:22:35;;;;;;;4.18;3.17;;;;;;;;;;5068886;28;20392;-83
2024/01/16 01:25:01;;;;;;;3.92;3.13;;;;;;;;;;5067430;28;20365;-83
2024/01/16 01:27:27;;;;;;;3.63;3.30;;;;;;;;;;5068873;28;20032;-83
2024/01/16 01:29:53;;;;;;;5.10;3.13;;;;;;;;;;5068453;28;20056;-83
2024/01/16 01:32:19;;;;;;;3.38;2.95;;;;;;;;;;5070654;28;20039;-83
2024/01/16 01:34:45;;;;;;;3.72;3.03;;;;;;;;;;5073315;28;20372;-83
2024/01/16 01:37:11;;;;;;;6.75;3.40;;;;;;;;;;5072704;28;20473;-83
2024/01/16 01:39:37;;;;;;;6.40;3.40;;;;;;;;;;5072636;28;20035;-83
2024/01/16 01:42:34;;;;;;;4.40;2.88;;;;;;;;;;5072566;28;20033;-83
2024/01/16 01:45:00;;;;;;;5.50;3.25;;;;;;;;;;5071339;28;20021;-83
2024/01/16 01:47:26;;;;;;;4.05;2.95;;;;;;;;;;5072133;28;20416;-83
2024/01/16 01:49:52;;;;;;;3.05;2.75;;;;;;;;;;5072449;28;20067;-83
2024/01/16 01:52:18;;;;;;;4.22;2.88;;;;;;;;;;5071787;28;20488;-82
2024/01/16 01:54:45;;;;;;;4.53;2.65;;;;;;;;;;5072260;28;20020;-82
2024/01/16 01:57:11;;;;;;;4.50;2.95;;;;;;;;;;5072346;28;20396;-82
2024/01/16 01:59:37;;;;;;;3.30;2.70;;;;;;;;;;5072299;28;20024;-83
2024/01/16 02:02:04;;;;;;;3.90;2.60;;;;;;;;;;5071719;28;20031;-83
2024/01/16 02:04:32;;;;;;;4.03;2.40;;;;;;;;;;5071884;28;20044;-83
2024/01/16 02:06:58;;;;;;;5.32;2.70;;;;;;;;;;5072136;28;20031;-82
2024/01/16 02:09:24;;;;;;;5.88;2.50;;;;;;;;;;5071002;28;20020;-83
2024/01/16 02:11:50;;;;;;;7.18;2.67;;;;;;;;;;5072737;28;20025;-83
2024/01/16 02:14:16;;;;;;;2.90;2.60;;;;;;;;;;5070976;28;20043;-82
2024/01/16 02:16:44;;;;;;;3.95;2.67;;;;;;;;;;5070800;28;20040;-83
2024/01/16 02:19:10;;;;;;;3.00;2.70;;;;;;;;;;5071963;28;20468;-83
2024/01/16 02:21:40;;;;;;;4.60;2.60;;;;;;;;;;5070277;28;20070;-83
2024/01/16 02:24:06;;;;;;;6.07;2.70;;;;;;;;;;5071838;28;20094;-82
2024/01/16 02:26:33;;;;;;;2.88;2.33;;;;;;;;;;5071981;28;20059;-82
2024/01/16 02:29:01;;;;;;;3.97;2.65;;;;;;;;;;5071887;28;20392;-83
2024/01/16 02:31:27;;;;;;;5.47;2.72;;;;;;;;;;5072172;28;20028;-82
2024/01/16 02:33:53;;;;;;;4.95;2.70;;;;;;;;;;5072475;28;20029;-83
2024/01/16 02:36:19;;;;;;;3.45;2.60;;;;;;;;;;5071700;28;20021;-83
2024/01/16 02:38:45;;;;;;;4.03;2.55;;;;;;;;;;5071443;28;20400;-83
2024/01/16 02:41:13;;;;;;;2.67;2.30;;;;;;;;;;5076433;28;20080;-83
2024/01/16 02:43:39;;;;;;;4.25;2.83;;;;;;;;;;5085525;28;20024;-82
2024/01/16 02:46:05;;;;;;;4.50;2.97;;;;;;;;;;5088168;28;20084;-82
2024/01/16 02:48:31;;;;;;;45.22;13.45;;;;;;;;;;5092285;28;20062;-83
2024/01/16 02:50:57;;;;;;;4.40;3.30;;;;;;;;;;5071660;28;20031;-81
2024/01/16 02:53:25;;;;;;;8.20;3.28;;;;;;;;;;5072013;28;20036;-82
2024/01/16 02:55:51;;;;;;;4.18;2.70;;;;;;;;;;5070660;28;20028;-82
2024/01/16 02:58:18;;;;;;;10.15;3.10;;;;;;;;;;5070823;28;20025;-81
2024/01/16 03:00:43;;;;;;;5.80;2.72;;;;;;;;;;5068822;28;20024;-82
2024/01/16 03:03:11;;;;;;;4.30;2.80;;;;;;;;;;5072651;28;20515;-82
2024/01/16 03:05:37;;;;;;;4.43;3.08;;;;;;;;;;5069867;28;20047;-83
2024/01/16 03:08:03;;;;;;;3.80;2.70;;;;;;;;;;5071979;28;20020;-81
2024/01/16 03:10:29;;;;;;;6.22;2.80;;;;;;;;;;5070543;28;20031;-82
2024/01/16 03:12:55;;;;;;;4.65;2.78;;;;;;;;;;5071047;28;20044;-81
2024/01/16 03:15:21;;;;;;;4.93;2.70;;;;;;;;;;5071137;28;20099;-82
2024/01/16 03:17:48;;;;;;;5.93;3.20;;;;;;;;;;5069172;28;20471;-82
2024/01/16 03:20:14;;;;;;;3.72;2.78;;;;;;;;;;5070872;28;20534;-81
2024/01/16 03:22:40;;;;;;;3.97;3.20;;;;;;;;;;5070468;28;20024;-82
2024/01/16 03:25:08;;;;;;;4.05;3.20;;;;;;;;;;5069314;28;20043;-82
2024/01/16 03:27:34;;;;;;;5.07;2.90;;;;;;;;;;5070511;28;20032;-82
2024/01/16 03:30:00;;;;;;;9.45;3.50;;;;;;;;;;5070096;28;20032;-81
2024/01/16 03:32:26;;;;;;;5.57;3.15;;;;;;;;;;5060475;28;20033;-82
2024/01/16 03:34:52;;;;;;;5.30;3.65;;;;;;;;;;5060243;28;20016;-82
2024/01/16 03:37:18;;;;;;;4.40;3.42;;;;;;;;;;5069037;28;20021;-83
2024/01/16 03:39:45;;;;;;;8.38;3.72;;;;;;;;;;5070434;28;20054;-82
2024/01/16 03:42:12;;;;;;;5.40;3.28;;;;;;;;;;5070258;28;20063;-82
2024/01/16 03:44:41;;;;;;;8.43;3.67;;;;;;;;;;5070448;28;20032;-81
2024/01/16 03:47:08;;;;;;;5.78;3.40;;;;;;;;;;5069447;28;20035;-84
2024/01/16 03:49:34;;;;;;;7.95;3.38;;;;;;;;;;5069743;28;20017;-83
2024/01/16 03:52:00;;;;;;;5.90;3.45;;;;;;;;;;5067771;28;20400;-83
2024/01/16 03:54:26;;;;;;;3.90;3.05;;;;;;;;;;5070473;28;20504;-83
2024/01/16 03:56:52;;;;;;;5.40;3.15;;;;;;;;;;5069318;28;20099;-83
2024/01/16 03:59:18;;;;;;;6.50;3.58;;;;;;;;;;5069280;28;20758;-83
2024/01/16 04:01:45;;;;;;;5.88;3.22;;;;;;;;;;5070131;28;20091;-83
2024/01/16 04:04:11;;;;;;;4.15;3.30;;;;;;;;;;5068104;28;20036;-83
2024/01/16 04:06:37;;;;;;;5.82;3.45;;;;;;;;;;5057613;28;20048;-83
2024/01/16 04:09:04;;;;;;;6.97;3.30;;;;;;;;;;5050028;28;20469;-84
2024/01/16 04:11:30;;;;;;;3.78;3.10;;;;;;;;;;5069638;28;20028;-84
2024/01/16 04:13:56;;;;;;;4.07;3.15;;;;;;;;;;5070462;28;20036;-83
2024/01/16 04:16:23;;;;;;;6.93;3.35;;;;;;;;;;5069039;28;20099;-83
2024/01/16 04:18:49;;;;;;;6.47;3.53;;;;;;;;;;5069296;28;20036;-83
2024/01/16 04:21:15;;;;;;;6.13;3.55;;;;;;;;;;5068206;28;20477;-83
2024/01/16 04:23:42;;;;;;;5.03;3.25;;;;;;;;;;5057268;28;20025;-84
2024/01/16 04:26:08;;;;;;;4.97;2.85;;;;;;;;;;5049600;28;20025;-82
2024/01/16 04:28:34;;;;;;;4.28;3.25;;;;;;;;;;5087250;28;20440;-83
2024/01/16 04:31:01;;;;;;;4.05;3.22;;;;;;;;;;5079934;28;20102;-82
2024/01/16 04:33:28;;;;;;;4.40;2.92;;;;;;;;;;5069666;28;20523;-83
2024/01/16 04:35:54;;;;;;;5.82;3.38;;;;;;;;;;5068988;28;20048;-82
2024/01/16 04:38:20;;;;;;;4.53;3.08;;;;;;;;;;5068540;28;20021;-81
2024/01/16 04:40:46;;;;;;;5.45;3.42;;;;;;;;;;5068927;28;20074;-82
2024/01/16 04:43:12;;;;;;;6.35;4.18;;;;;;;;;;5069229;28;20024;-83
2024/01/16 04:45:38;;;;;;;5.97;4.88;;;;;;;;;;5069448;28;20031;-84
2024/01/16 04:48:04;;;;;;;8.25;4.50;;;;;;;;;;5068764;28;20033;-83
2024/01/16 04:50:33;;;;;;;20.13;8.85;;;;;;;;;;5068795;28;20526;-83
2024/01/16 04:53:02;;;;;;;4.50;3.22;;;;;;;;;;5069867;28;20066;-83
2024/01/16 04:55:29;;;;;;;6.50;3.78;;;;;;;;;;5065609;28;20025;-84
2024/01/16 04:57:55;;;;;;;4.65;3.50;;;;;;;;;;5068508;28;20032;-85
2024/01/16 05:00:21;;;;;;;6.82;4.88;;;;;;;;;;5069313;28;20024;-84
2024/01/16 05:02:47;;;;;;;6.78;5.32;;;;;;;;;;5068512;28;20028;-84
2024/01/16 05:05:13;;;;;;;5.53;3.30;;;;;;;;;;5074091;28;20077;-82
2024/01/16 05:07:39;;;;;;;6.82;3.38;;;;;;;;;;5068282;28;20028;-82
2024/01/16 05:10:06;;;;;;;9.90;3.65;;;;;;;;;;5069510;28;20033;-83
2024/01/16 05:12:32;;;;;;;6.55;3.60;;;;;;;;;;5068400;28;20167;-83
2024/01/16 05:14:58;;;;;;;4.90;3.22;;;;;;;;;;5069932;28;20051;-82
2024/01/16 05:17:24;;;;;;;5.75;3.38;;;;;;;;;;5068703;28;20469;-84
2024/01/16 05:19:50;;;;;;;5.70;3.67;;;;;;;;;;5068716;28;20032;-82
2024/01/16 05:22:16;;;;;;;7.65;4.10;;;;;;;;;;5068897;28;20031;-83
2024/01/16 05:24:42;;;;;;;6.47;3.63;;;;;;;;;;5078747;28;20024;-82
2024/01/16 05:27:09;;;;;;;3.55;3.17;;;;;;;;;;5087885;28;20448;-84
2024/01/16 05:29:37;;;;;;;5.70;3.30;;;;;;;;;;5089048;28;20115;-81
2024/01/16 05:32:04;;;;;;;4.72;3.33;;;;;;;;;;5078231;28;20086;-81
2024/01/16 05:34:30;;;;;;;5.70;3.20;;;;;;;;;;5069013;28;20031;-82
2024/01/16 05:36:56;;;;;;;3.75;3.10;;;;;;;;;;5068817;28;20021;-81
2024/01/16 05:39:22;;;;;;;3.10;2.80;;;;;;;;;;5068691;28;20052;-83
2024/01/16 05:41:48;;;;;;;4.22;3.10;;;;;;;;;;5069016;28;20468;-82
2024/01/16 05:44:14;;;;;;;6.07;3.28;;;;;;;;;;5068196;28;20032;-81
2024/01/16 05:46:40;;;;;;;3.53;2.78;;;;;;;;;;5071851;28;20021;-83
2024/01/16 05:49:06;;;;;;;4.00;2.95;;;;;;;;;;5082813;28;20035;-82
2024/01/16 05:51:32;;;;;;;3.90;3.22;;;;;;;;;;5089223;28;20029;-82
2024/01/16 05:53:58;;;;;;;4.85;3.47;;;;;;;;;;5068022;28;20082;-84
2024/01/16 05:56:24;;;;;;;4.53;3.10;;;;;;;;;;5067965;28;20518;-81
2024/01/16 05:58:50;;;;;;;5.93;3.22;;;;;;;;;;5067636;28;20078;-81
2024/01/16 06:01:16;;;;;;;6.65;3.13;;;;;;;;;;5068290;28;20020;-82
2024/01/16 06:03:43;;;;;;;4.45;3.00;;;;;;;;;;5066676;28;20099;-81
2024/01/16 06:06:09;;;;;;;5.73;3.33;;;;;;;;;;5081335;28;20028;-82
2024/01/16 06:08:35;;;;;;;3.13;2.83;;;;;;;;;;5088518;28;20108;-84
2024/01/16 06:11:01;;;;;;;5.95;3.38;;;;;;;;;;5088664;28;20020;-81
2024/01/16 06:13:28;;;;;;;8.95;3.10;;;;;;;;;;5088287;28;20466;-81
2024/01/16 06:15:54;;;;;;;4.03;2.92;;;;;;;;;;5088654;28;20586;-81
2024/01/16 06:18:20;;;;;;;4.03;2.90;;;;;;;;;;5089938;28;20480;-81
2024/01/16 06:20:46;;;;;;;6.78;2.90;;;;;;;;;;5092222;28;20028;-81
2024/01/16 06:23:12;;;;;;;7.57;2.78;;;;;;;;;;5092185;28;20020;-83
2024/01/16 06:25:38;;;;;;;3.30;2.80;;;;;;;;;;5087397;28;20472;-81
2024/01/16 06:28:05;;;;;;;2.58;2.38;;;;;;;;;;5071146;28;20063;-84
2024/01/16 06:30:31;;;;;;;4.95;3.03;;;;;;;;;;5072681;28;20020;-82
2024/01/16 06:32:57;;;;;;;4.18;2.55;;;;;;;;;;5071501;28;20032;-82
2024/01/16 06:35:23;;;;;;;8.05;2.92;;;;;;;;;;5071543;28;20024;-83
2024/01/16 06:37:49;;;;;;;4.05;3.05;;;;;;;;;;5075034;28;20403;-84
2024/01/16 06:40:15;;;;;;;4.30;2.92;;;;;;;;;;5071562;28;20036;-84
2024/01/16 06:42:41;;;;;;;3.30;2.53;;;;;;;;;;5071719;28;20028;-81
2024/01/16 06:45:07;;;;;;;3.45;2.67;;;;;;;;;;5071447;28;20093;-82
2024/01/16 06:47:33;;;;;;;4.03;2.90;;;;;;;;;;5072424;28;20025;-81
2024/01/16 06:49:59;;;;;;;4.70;3.20;;;;;;;;;;5070031;28;20029;-82
2024/01/16 06:52:25;;;;;;;5.07;2.83;;;;;;;;;;5079986;28;20115;-84
2024/01/16 06:54:51;;;;;;;5.25;2.75;;;;;;;;;;5085811;28;20119;-83
2024/01/16 06:57:17;;;;;;;8.00;2.80;;;;;;;;;;5069880;28;20031;-83
2024/01/16 06:59:43;;;;;;;3.88;2.63;;;;;;;;;;5069862;28;20525;-85
2024/01/16 07:02:10;;;;;;;4.55;2.80;;;;;;;;;;5071199;28;20025;-84
2024/01/16 07:04:36;;;;;;;7.22;2.47;;;;;;;;;;5071830;28;20401;-84
2024/01/16 07:07:02;;;;;;;5.38;2.65;;;;;;;;;;5079252;28;20024;-83
2024/01/16 07:09:29;;;;;;;4.75;2.33;;;;;;;;;;5091288;28;20372;-84
2024/01/16 07:11:55;;;;;;;4.65;2.67;;;;;;;;;;5088447;28;20107;-83
2024/01/16 07:14:21;;;;;;;3.33;2.70;;;;;;;;;;5070949;28;20120;-84
2024/01/16 07:16:47;;;;;;;3.42;2.50;;;;;;;;;;5070983;28;20021;-84
2024/01/16 07:19:13;;;;;;;5.35;2.85;;;;;;;;;;5071370;28;20107;-83
2024/01/16 07:21:39;;;;;;;4.47;2.80;;;;;;;;;;5070784;28;20067;-83
2024/01/16 07:24:05;;;;;;;2.47;2.28;;;;;;;;;;5071720;28;20021;-84
2024/01/16 07:26:31;;;;;;;5.10;2.88;;;;;;;;;;5070840;28;20028;-84
2024/01/16 07:28:57;;;;;;;2.92;2.50;;;;;;;;;;5087627;28;20040;-84
2024/01/16 07:31:24;;;;;;;4.78;2.65;;;;;;;;;;5090201;28;20388;-84
2024/01/16 07:33:50;;;;;;;3.08;2.45;;;;;;;;;;5090964;28;20061;-84
2024/01/16 07:36:16;;;;;;;2.75;2.30;;;;;;;;;;5089502;28;20025;-82
2024/01/16 07:38:42;;;;;;;4.10;2.10;;;;;;;;;;5090664;28;20392;-82
2024/01/16 07:41:08;;;;;;;3.47;2.60;;;;;;;;;;5090085;28;20051;-83
2024/01/16 07:43:35;;;;;;;4.35;2.35;;;;;;;;;;5089358;28;20020;-82
2024/01/16 07:46:01;;;;;;;3.88;2.40;;;;;;;;;;5090676;28;20105;-82
2024/01/16 07:48:27;;;;;;;4.35;2.42;;;;;;;;;;5089304;28;20510;-83
2024/01/16 07:50:53;;;;;;;4.75;2.60;;;;;;;;;;5090434;28;20389;-81
2024/01/16 07:53:19;;;;;;;2.67;2.47;;;;;;;;;;5090403;28;20035;-82
2024/01/16 07:55:45;;;;;;;3.10;2.42;;;;;;;;;;5090650;28;20024;-83
2024/01/16 07:58:12;;;;;;;4.57;2.90;;;;;;;;;;5089093;28;20024;-80
2024/01/16 08:00:38;;;;;;;4.10;2.78;;;;;;;;;;5090713;28;20411;-83
2024/01/16 08:03:04;;;;;;;3.97;2.78;;;;;;;;;;5090376;28;20020;-82
2024/01/16 08:05:30;;;;;;;3.85;2.60;;;;;;;;;;5090120;28;20028;-82
2024/01/16 08:07:56;;;;;;;3.40;2.70;;;;;;;;;;5090446;28;20027;-82
2024/01/16 08:10:22;;;;;;;2.80;2.50;;;;;;;;;;5090158;28;20020;-83
2024/01/16 08:12:48;;;;;;;3.33;2.50;;;;;;;;;;5081616;28;20078;-82
2024/01/16 08:15:14;;;;;;;5.03;3.10;;;;;;;;;;5069671;28;20396;-83
2024/01/16 08:17:41;;;;;;;6.50;2.88;;;;;;;;;;5069432;28;20031;-83
2024/01/16 08:20:10;;;;;;;4.35;3.30;;;;;;;;;;5070700;28;20033;-85
2024/01/16 08:22:37;;;;;;;6.68;2.92;;;;;;;;;;5070644;28;20434;-85
2024/01/16 08:25:04;;;;;;;3.75;2.80;;;;;;;;;;5069963;28;20103;-84
2024/01/16 08:27:31;;;;;;;5.13;3.08;;;;;;;;;;5069362;28;20024;-85
2024/01/16 08:29:57;;;;;;;7.03;4.32;;;;;;;;;;5069793;28;20120;-85
2024/01/16 08:32:22;;;;;;;3.80;3.40;;;;;;;;;;5069754;28;20116;-83
2024/01/16 08:34:48;;;;;;;15.43;7.45;;;;;;;;;;5069793;28;20099;-85
2024/01/16 08:37:14;;;;;;;8.65;4.18;;;;;;;;;;5068683;28;20024;-86
2024/01/16 08:39:41;;;;;;;11.15;5.07;;;;;;;;;;5070732;28;20020;-84
2024/01/16 08:42:07;;;;;;;8.27;3.80;;;;;;;;;;5070408;28;20029;-83
2024/01/16 08:44:33;;;;;;;7.97;4.53;;;;;;;;;;5080846;28;20473;-82
2024/01/16 08:47:00;;;;;;;8.02;5.05;;;;;;;;;;5088978;28;20078;-82
2024/01/16 08:49:27;;;;;;;6.07;3.60;;;;;;;;;;5087101;28;20025;-82
2024/01/16 08:51:53;;;;;;;17.10;10.15;;;;;;;;;;5084131;28;20029;-82
2024/01/16 08:54:19;;;;;;;17.90;11.60;;;;;;;;;;5088851;28;20032;-85
2024/01/16 08:56:45;;;;;;;10.80;7.22;;;;;;;;;;5089744;28;20034;-84
2024/01/16 08:59:10;;;;;;;11.15;5.72;;;;;;;;;;5090294;28;20024;-85
2024/01/16 09:01:37;;;;;;;12.50;7.07;;;;;;;;;;5089404;28;20020;-82
2024/01/16 09:04:03;;;;;;;6.30;4.68;;;;;;;;;;5089451;28;20024;-83
2024/01/16 09:06:29;;;;;;;8.15;3.97;;;;;;;;;;5089317;28;20023;-85
2024/01/16 09:08:54;;;;;;;3.40;3.10;;;;;;;;;;5077258;28;20055;-83
2024/01/16 09:11:20;;;;;;;6.35;3.25;;;;;;;;;;5083067;28;20468;-83
2024/01/16 09:13:46;;;;;;;5.95;2.70;;;;;;;;;;5087758;28;20138;-83
2024/01/16 09:16:13;;;;;;;5.47;2.67;;;;;;;;;;5088566;28;20051;-83
2024/01/16 09:18:38;;;;;;;3.13;2.60;;;;;;;;;;5089098;28;20399;-83
2024/01/16 09:21:04;;;;;;;4.72;2.70;;;;;;;;;;5076159;28;20258;-82
2024/01/16 09:23:30;;;;;;;3.92;2.95;;;;;;;;;;5068885;28;20035;-84
2024/01/16 09:25:56;;;;;;;4.13;2.90;;;;;;;;;;5067456;28;20035;-83
2024/01/16 09:28:22;;;;;;;7.68;3.28;;;;;;;;;;5068872;28;20033;-82
2024/01/16 09:30:48;;;;;;;8.80;4.43;;;;;;;;;;5067471;28;20538;-82
2024/01/16 09:33:16;;;;;;;6.00;3.40;;;;;;;;;;5069828;28;20028;-83
2024/01/16 09:35:42;;;;;;;9.02;2.83;;;;;;;;;;5076566;28;20082;-83
2024/01/16 09:38:08;;;;;;;5.65;3.10;;;;;;;;;;5087805;28;20024;-84
2024/01/16 09:40:35;;;;;;;9.25;3.05;;;;;;;;;;5089013;28;20028;-84
2024/01/16 09:43:01;;;;;;;3.42;2.83;;;;;;;;;;5087517;28;20074;-82
2024/01/16 09:45:29;;;;;;;3.42;2.58;;;;;;;;;;5088910;28;20104;-83
2024/01/16 09:47:56;;;;;;;4.60;3.08;;;;;;;;;;5088986;28;20073;-83
2024/01/16 09:50:23;;;;;;;3.92;2.88;;;;;;;;;;5084537;28;20024;-85
2024/01/16 09:52:49;;;;;;;4.20;3.20;;;;;;;;;;5067965;28;20055;-84
2024/01/16 09:55:16;;;;;;;8.68;3.47;;;;;;;;;;5071913;28;20032;-84
2024/01/16 09:57:43;;;;;;;7.57;5.55;;;;;;;;;;5072606;28;20392;-84
2024/01/16 10:00:12;;;;;;;6.78;4.47;;;;;;;;;;5072292;28;20028;-83
2024/01/16 10:02:38;;;;;;;;;;;;;;;;;;5072804;28;20043;-84
2024/01/16 10:05:04;;;;;;;5.68;4.35;;;;;;;;;;5089027;28;19908;-85
2024/01/16 10:07:30;;;;;;;4.28;3.20;;;;;;;;;;5092518;28;20027;-82
2024/01/16 10:09:57;;;;;;;10.43;4.22;;;;;;;;;;5092756;28;20032;-85
2024/01/16 10:12:24;;;;;;;8.80;4.20;;;;;;;;;;5092261;28;20040;-84
2024/01/16 10:14:51;;;;;;;5.07;4.03;;;;;;;;;;5092534;28;20505;-85
2024/01/16 10:17:18;;;;;;;7.50;4.13;;;;;;;;;;5093258;28;20024;-84
2024/01/16 10:19:51;;;;;;;5.95;4.07;;;;;;;;;;5078345;28;20017;-85
2024/01/16 10:22:24;;;;;;;6.32;3.10;;;;;;;;;;5072802;28;20478;-85
2024/01/16 10:24:51;;;;;;;7.38;4.03;;;;;;;;;;5071793;28;20430;-84
2024/01/16 10:27:17;;;;;;;16.67;9.48;;;;;;;;;;5072759;28;20047;-85
2024/01/16 10:29:55;;;;;;;6.68;4.25;;;;;;;;;;5072110;28;20047;-85
2024/01/16 10:32:32;;;;;;;4.85;3.08;;;;;;;;;;5071814;28;20048;-86
2024/01/16 10:35:04;;;;;;;5.60;3.78;;;;;;;;;;5072402;28;20549;-84
2024/01/16 10:37:31;;;;;;;4.28;3.28;;;;;;;;;;5071219;28;20602;-84
2024/01/16 10:39:57;;;;;;;4.28;3.00;;;;;;;;;;5070238;28;20458;-85
2024/01/16 10:42:23;;;;;;;4.30;3.33;;;;;;;;;;5071503;28;20519;-85
2024/01/16 10:44:55;;;;;;;5.65;3.22;;;;;;;;;;5072263;28;20074;-82
2024/01/16 10:47:22;;;;;;;5.57;3.28;;;;;;;;;;5071507;28;20533;-85
2024/01/16 10:49:49;;;;;;;6.22;4.25;;;;;;;;;;5071834;28;20500;-85
2024/01/16 10:52:15;;;;;;;10.65;6.93;;;;;;;;;;5072011;28;20041;-84
2024/01/16 10:54:44;;;;;;;6.13;3.83;;;;;;;;;;5071333;28;20554;-84
2024/01/16 10:57:10;;;;;;;5.72;3.55;;;;;;;;;;5071237;28;20261;-86
2024/01/16 10:59:55;;;;;;;7.25;4.70;;;;;;;;;;5071244;28;20024;-84
2024/01/16 11:02:21;;;;;;;12.27;7.05;;;;;;;;;;5071061;28;20025;-83
2024/01/16 11:04:48;;;;;;;6.68;3.85;;;;;;;;;;5083486;28;20032;-85
2024/01/16 11:07:14;;;;;;;7.63;4.63;;;;;;;;;;5091310;28;20024;-83
2024/01/16 11:09:41;;;;;;;7.78;4.10;;;;;;;;;;5090039;28;20491;-85
2024/01/16 11:12:10;;;;;;;8.13;3.17;;;;;;;;;;5091088;28;20028;-84
2024/01/16 11:14:37;;;;;;;5.00;3.25;;;;;;;;;;5079477;28;20032;-83
2024/01/16 11:17:04;;;;;;;6.75;3.30;;;;;;;;;;5070798;28;20074;-84
2024/01/16 11:19:32;;;;;;;5.43;3.60;;;;;;;;;;5069563;28;20028;-85
2024/01/16 11:21:58;;;;;;;4.50;2.90;;;;;;;;;;5069425;28;20078;-85
2024/01/16 11:24:24;;;;;;;5.45;2.97;;;;;;;;;;5070774;28;20104;-84
2024/01/16 11:26:50;;;;;;;7.93;2.75;;;;;;;;;;5071230;28;20451;-82
2024/01/16 11:29:28;;;;;;;4.90;3.42;;;;;;;;;;5079271;28;20060;-83
2024/01/16 11:31:55;;;;;;;5.57;3.15;;;;;;;;;;5088659;28;20035;-85
2024/01/16 11:34:40;;;;;;;6.57;2.85;;;;;;;;;;5091343;28;20062;-82
2024/01/16 11:37:07;;;;;;;4.57;3.10;;;;;;;;;;5090762;28;20425;-83
2024/01/16 11:39:34;;;;;;;6.37;3.23;;;;;;;;;;5090608;28;20016;-83
2024/01/16 11:42:02;;;;;;;6.45;3.70;;;;;;;;;;5090518;28;20391;-83
2024/01/16 11:44:28;;;;;;;;;;;;;;;;;;5091066;28;20081;-84
2024/01/16 11:47:01;;;;;;;8.50;3.67;;;;;;;;;;5090574;28;19904;-84
2024/01/16 11:49:27;;;;;;;4.25;3.15;;;;;;;;;;5088299;28;20063;-84
2024/01/16 11:51:53;;;;;;;4.97;3.20;;;;;;;;;;5090376;28;20067;-85
2024/01/16 11:54:19;;;;;;;8.35;5.47;;;;;;;;;;5091185;28;20061;-84
2024/01/16 11:56:51;;;;;;;5.65;3.28;;;;;;;;;;5090364;28;20393;-83
2024/01/16 11:59:20;;;;;;;8.05;5.07;;;;;;;;;;5090310;28;20511;-83
2024/01/16 12:01:46;;;;;;;7.07;3.53;;;;;;;;;;5090344;28;20024;-86
2024/01/16 12:04:18;;;;;;;3.38;2.90;;;;;;;;;;5089679;28;20169;-85
2024/01/16 12:06:43;;;;;;;3.33;2.70;;;;;;;;;;5090240;28;20024;-85
2024/01/16 12:09:13;;;;;;;4.80;2.92;;;;;;;;;;5072522;28;20369;-83
2024/01/16 12:11:40;;;;;;;5.05;3.72;;;;;;;;;;5069743;28;20024;-83
2024/01/16 12:14:06;;;;;;;11.73;7.22;;;;;;;;;;5068434;28;20032;-84
2024/01/16 12:16:32;;;;;;;8.60;6.13;;;;;;;;;;5069316;28;20032;-84
2024/01/16 12:19:08;;;;;;;6.95;4.00;;;;;;;;;;5074597;28;20071;-84
2024/01/16 12:21:41;;;;;;;15.50;9.60;;;;;;;;;;5089656;28;20498;-84
2024/01/16 12:24:07;;;;;;;20.67;12.48;;;;;;;;;;5089853;28;20062;-82
2024/01/16 12:26:33;;;;;;;4.88;3.20;;;;;;;;;;5089797;28;20031;-84
2024/01/16 12:28:59;;;;;;;11.73;6.35;;;;;;;;;;5089686;28;20028;-84
2024/01/16 12:31:26;;;;;;;9.23;3.30;;;;;;;;;;5089742;28;20016;-81
2024/01/16 12:33:52;;;;;;;7.45;3.45;;;;;;;;;;5087560;28;20044;-85
2024/01/16 12:36:18;;;;;;;7.80;4.35;;;;;;;;;;5069162;28;20104;-82
2024/01/16 12:38:44;;;;;;;8.57;5.55;;;;;;;;;;5069427;28;20101;-81
2024/01/16 12:41:11;;;;;;;6.53;4.47;;;;;;;;;;5069285;28;20028;-83
2024/01/16 12:43:37;;;;;;;7.32;5.70;;;;;;;;;;5069334;28;20028;-82
2024/01/16 12:46:03;;;;;;;6.20;3.20;;;;;;;;;;5070225;28;20028;-82
2024/01/16 12:48:29;;;;;;;6.97;3.15;;;;;;;;;;5067925;28;20024;-81
2024/01/16 12:51:02;;;;;;;4.70;3.10;;;;;;;;;;5069952;28;20021;-81
2024/01/16 12:53:28;;;;;;;6.05;4.03;;;;;;;;;;5069166;28;20043;-82
2024/01/16 12:56:04;;;;;;;7.13;2.75;;;;;;;;;;5071015;28;20028;-82
2024/01/16 12:58:37;;;;;;;4.55;3.30;;;;;;;;;;5068998;28;20047;-82
2024/01/16 13:01:22;;;;;;;4.50;2.70;;;;;;;;;;5069009;28;20025;-83
2024/01/16 13:03:48;;;;;;;6.78;2.45;;;;;;;;;;5067746;28;20064;-82
2024/01/16 13:06:18;;;;;;;3.25;2.50;;;;;;;;;;5069046;28;20540;-81
2024/01/16 13:08:44;;;;;;;2.88;2.22;;;;;;;;;;5069045;28;20371;-83
2024/01/16 13:11:10;;;;;;;3.40;2.50;;;;;;;;;;5083836;28;20036;-83
2024/01/16 13:13:37;;;;;;;3.42;2.70;;;;;;;;;;5089010;28;20050;-84
2024/01/16 13:16:05;;;;;;;4.55;2.50;;;;;;;;;;5089131;28;20024;-83
2024/01/16 13:18:32;;;;;;;3.53;2.20;;;;;;;;;;5089268;28;20054;-84
2024/01/16 13:20:59;;;;;;;3.28;2.40;;;;;;;;;;5089091;28;20077;-82
2024/01/16 13:23:25;;;;;;;2.58;2.20;;;;;;;;;;5089915;28;20027;-82
2024/01/16 13:25:52;;;;;;;3.67;2.30;;;;;;;;;;5075250;28;20033;-81
2024/01/16 13:28:19;;;;;;;8.15;2.40;;;;;;;;;;5070015;28;20243;-82
2024/01/16 13:30:46;;;;;;;2.88;2.30;;;;;;;;;;5072965;28;20032;-83
2024/01/16 13:33:12;;;;;;;2.30;2.10;;;;;;;;;;5072806;28;20036;-83
2024/01/16 13:35:40;;;;;;;3.72;2.42;;;;;;;;;;5072789;28;20047;-83
2024/01/16 13:38:08;;;;;;;2.70;2.30;;;;;;;;;;5072840;28;20029;-85
2024/01/16 13:40:35;;;;;;;7.95;2.63;;;;;;;;;;5072777;28;20109;-84
2024/01/16 13:43:02;;;;;;;3.97;2.50;;;;;;;;;;5085879;28;20035;-84
2024/01/16 13:45:28;;;;;;;3.33;2.20;;;;;;;;;;5077044;28;20033;-82
2024/01/16 13:47:54;;;;;;;4.55;2.33;;;;;;;;;;5073384;28;20028;-81
2024/01/16 13:50:20;;;;;;;2.92;2.35;;;;;;;;;;5072388;28;20419;-83
2024/01/16 13:52:47;;;;;;;4.38;2.63;;;;;;;;;;5072368;28;20040;-82
2024/01/16 13:55:13;;;;;;;2.60;2.40;;;;;;;;;;5072372;28;20376;-84
2024/01/16 13:57:39;;;;;;;5.00;2.58;;;;;;;;;;5071214;28;20034;-82
2024/01/16 14:00:07;;;;;;;1.98;1.88;;;;;;;;;;5072429;28;20017;-85
2024/01/16 14:02:38;;;;;;;3.47;2.15;;;;;;;;;;5073177;28;20024;-84
2024/01/16 14:05:05;;;;;;;3.05;2.25;;;;;;;;;;5072239;28;20020;-84
2024/01/16 14:07:31;;;;;;;3.67;2.08;;;;;;;;;;5072263;28;20055;-80
2024/01/16 14:09:57;;;;;;;3.28;2.13;;;;;;;;;;5072934;28;20032;-81
2024/01/16 14:12:24;;;;;;;3.35;2.22;;;;;;;;;;5078079;28;20035;-83
2024/01/16 14:14:51;;;;;;;3.25;2.33;;;;;;;;;;5092340;28;20293;-82
2024/01/16 14:17:17;;;;;;;3.90;2.65;;;;;;;;;;5092185;28;20028;-83
2024/01/16 14:19:43;;;;;;;7.13;2.78;;;;;;;;;;5092274;28;20084;-83
2024/01/16 14:22:09;;;;;;;3.95;2.35;;;;;;;;;;5092194;28;20120;-81
2024/01/16 14:24:37;;;;;;;3.15;2.20;;;;;;;;;;5092133;28;20020;-82
2024/01/16 14:27:04;;;;;;;4.07;2.90;;;;;;;;;;5091616;28;20023;-81
2024/01/16 14:29:30;;;;;;;3.65;2.70;;;;;;;;;;5092701;28;20028;-82
2024/01/16 14:31:56;;;;;;;4.00;2.40;;;;;;;;;;5092787;28;20421;-83
2024/01/16 14:34:23;;;;;;;3.67;2.55;;;;;;;;;;5091948;28;20039;-83
2024/01/16 14:36:49;;;;;;;5.18;2.50;;;;;;;;;;5091859;28;20108;-83
2024/01/16 14:39:21;;;;;;;9.23;2.42;;;;;;;;;;5091698;28;20496;-83
2024/01/16 14:41:47;;;;;;;2.72;2.40;;;;;;;;;;5090673;28;20016;-82